createdAt,value
2023-07-15T00:02:20.071Z,23.76
2023-07-15T00:04:46.758Z,23.74
2023-07-15T00:07:13.402Z,23.57
2023-07-15T00:09:40.155Z,23.66
2023-07-15T00:12:06.825Z,23.62
2023-07-15T00:14:33.495Z,23.69
2023-07-15T00:17:00.157Z,23.49
2023-07-15T00:19:26.859Z,23.57
2023-07-15T00:21:53.517Z,23.56
2023-07-15T00:24:20.198Z,23.54
2023-07-15T00:26:46.854Z,23.31
2023-07-15T00:29:13.549Z,23.34
2023-07-15T00:31:40.280Z,23.32
2023-07-15T00:34:07.009Z,23.24
2023-07-15T00:36:33.667Z,23.35
2023-07-15T00:39:00.367Z,23.54
2023-07-15T00:41:27.021Z,23.46
2023-07-15T00:43:53.711Z,23.63
2023-07-15T00:46:20.464Z,23.57
2023-07-15T00:48:47.198Z,23.49
2023-07-15T00:51:13.842Z,23.44
2023-07-15T00:53:40.537Z,23.45
2023-07-15T00:56:07.219Z,23.23
2023-07-15T00:58:33.891Z,22.99
2023-07-15T01:01:00.599Z,22.95
2023-07-15T01:03:27.521Z,23.12
2023-07-15T01:05:54.370Z,22.99
2023-07-15T01:08:21.037Z,22.98
2023-07-15T01:10:47.748Z,23.00
2023-07-15T01:13:14.428Z,23.10
2023-07-15T01:15:41.155Z,23.08
2023-07-15T01:18:07.851Z,23.21
2023-07-15T01:20:34.540Z,23.14
2023-07-15T01:23:01.276Z,22.94
2023-07-15T01:25:27.960Z,22.75
2023-07-15T01:27:54.628Z,22.87
2023-07-15T01:30:21.388Z,22.96
2023-07-15T01:32:48.071Z,22.98
2023-07-15T01:35:14.741Z,22.79
2023-07-15T01:37:41.397Z,22.81
2023-07-15T01:40:08.100Z,22.65
2023-07-15T01:42:34.761Z,22.77
2023-07-15T01:45:01.450Z,22.90
2023-07-15T01:47:28.200Z,22.99
2023-07-15T01:49:54.891Z,22.69
2023-07-15T01:52:21.532Z,22.78
2023-07-15T01:54:48.210Z,22.63
2023-07-15T01:57:14.851Z,22.67
2023-07-15T01:59:41.514Z,22.67
2023-07-15T02:02:08.232Z,22.68
2023-07-15T02:04:34.958Z,22.80
2023-07-15T02:07:01.675Z,22.80
2023-07-15T02:09:28.334Z,22.63
2023-07-15T02:11:55.020Z,22.62
2023-07-15T02:14:21.689Z,22.53
2023-07-15T02:16:48.443Z,22.51
2023-07-15T02:19:15.103Z,22.58
2023-07-15T02:21:41.798Z,22.57
2023-07-15T02:24:08.459Z,22.46
2023-07-15T02:26:35.162Z,22.38
2023-07-15T02:29:01.871Z,22.43
2023-07-15T02:31:28.592Z,22.54
2023-07-15T02:33:55.303Z,22.47
2023-07-15T02:36:21.968Z,22.35
2023-07-15T02:38:48.655Z,22.18
2023-07-15T02:41:15.365Z,22.36
2023-07-15T02:43:42.013Z,22.25
2023-07-15T02:46:08.695Z,22.21
2023-07-15T02:48:35.633Z,22.29
2023-07-15T02:51:02.325Z,22.27
2023-07-15T02:53:29.018Z,22.37
2023-07-15T02:55:55.687Z,22.23
2023-07-15T02:58:22.343Z,22.40
2023-07-15T03:00:49.035Z,22.39
2023-07-15T03:03:15.681Z,22.35
2023-07-15T03:05:42.317Z,22.32
2023-07-15T03:08:09.001Z,22.24
2023-07-15T03:10:35.708Z,22.26
2023-07-15T03:13:02.377Z,22.37
2023-07-15T03:15:29.072Z,22.33
2023-07-15T03:17:55.820Z,22.28
2023-07-15T03:20:22.538Z,22.19
2023-07-15T03:22:49.283Z,22.06
2023-07-15T03:25:18.266Z,22.14
2023-07-15T03:27:45.406Z,22.20
2023-07-15T03:30:12.112Z,21.95
2023-07-15T03:32:38.831Z,21.81
2023-07-15T03:35:05.533Z,21.78
2023-07-15T03:37:32.255Z,22.10
2023-07-15T03:39:58.917Z,22.30
2023-07-15T03:42:25.568Z,22.01
2023-07-15T03:44:52.327Z,21.99
2023-07-15T03:47:19.228Z,21.92
2023-07-15T03:49:45.950Z,21.92
2023-07-15T03:52:12.655Z,22.03
2023-07-15T03:54:39.336Z,21.76
2023-07-15T03:57:06.041Z,21.90
2023-07-15T03:59:32.758Z,22.01
2023-07-15T04:01:59.695Z,21.82
2023-07-15T04:04:26.392Z,21.89
2023-07-15T04:06:53.027Z,21.92
2023-07-15T04:09:19.686Z,22.12
2023-07-15T04:11:46.366Z,21.99
2023-07-15T04:14:13.015Z,21.91
2023-07-15T04:16:39.770Z,22.00
2023-07-15T04:19:06.447Z,22.06
2023-07-15T04:21:33.137Z,21.79
2023-07-15T04:23:59.842Z,21.89
2023-07-15T04:26:26.590Z,22.13
2023-07-15T04:28:53.236Z,22.21
2023-07-15T04:31:19.950Z,22.19
2023-07-15T04:33:46.661Z,22.28
2023-07-15T04:36:13.528Z,22.70
2023-07-15T04:38:40.476Z,22.90
2023-07-15T04:41:07.152Z,23.03
2023-07-15T04:43:33.846Z,23.16
2023-07-15T04:46:00.562Z,23.38
2023-07-15T04:48:27.245Z,23.65
2023-07-15T04:50:53.943Z,23.79
2023-07-15T04:53:20.628Z,23.91
2023-07-15T04:55:47.314Z,24.10
2023-07-15T04:58:13.963Z,24.25
2023-07-15T05:00:40.663Z,24.27
2023-07-15T05:03:07.354Z,24.52
2023-07-15T05:05:34.054Z,24.80
2023-07-15T05:08:00.722Z,25.09
2023-07-15T05:10:27.418Z,25.40
2023-07-15T05:12:54.107Z,25.55
2023-07-15T05:15:20.781Z,25.69
2023-07-15T05:17:47.463Z,25.93
2023-07-15T05:20:14.163Z,26.13
2023-07-15T05:22:40.890Z,25.98
2023-07-15T05:25:07.606Z,26.38
2023-07-15T05:27:34.262Z,26.53
2023-07-15T05:30:00.950Z,26.72
2023-07-15T05:32:27.665Z,26.80
2023-07-15T05:34:54.362Z,27.00
2023-07-15T05:37:20.999Z,27.13
2023-07-15T05:39:47.670Z,27.32
2023-07-15T05:42:14.345Z,27.40
2023-07-15T05:44:41.072Z,27.59
2023-07-15T05:47:07.745Z,27.70
2023-07-15T05:49:34.455Z,27.71
2023-07-15T05:52:01.135Z,27.81
2023-07-15T05:54:27.857Z,27.99
2023-07-15T05:56:54.497Z,28.16
2023-07-15T05:59:21.176Z,28.27
2023-07-15T06:01:47.878Z,28.10
2023-07-15T06:04:14.581Z,28.23
2023-07-15T06:06:41.271Z,28.21
2023-07-15T06:09:07.956Z,28.17
2023-07-15T06:11:34.628Z,28.14
2023-07-15T06:14:01.327Z,27.92
2023-07-15T06:16:28.052Z,28.07
2023-07-15T06:18:54.741Z,28.49
2023-07-15T06:21:21.430Z,28.50
2023-07-15T06:23:48.073Z,28.91
2023-07-15T06:26:14.971Z,29.03
2023-07-15T06:28:41.933Z,29.05
2023-07-15T06:31:08.710Z,29.24
2023-07-15T06:33:35.453Z,29.26
2023-07-15T06:36:02.153Z,29.02
2023-07-15T06:38:28.822Z,29.33
2023-07-15T06:40:55.516Z,29.65
2023-07-15T06:43:22.255Z,29.87
2023-07-15T06:45:48.921Z,30.01
2023-07-15T06:48:15.612Z,29.52
2023-07-15T06:50:42.277Z,29.80
2023-07-15T06:53:08.932Z,29.99
2023-07-15T06:55:35.635Z,30.10
2023-07-15T06:58:02.316Z,30.27
2023-07-15T07:00:28.966Z,30.03
2023-07-15T07:02:55.692Z,30.50
2023-07-15T07:05:22.375Z,30.70
2023-07-15T07:07:49.085Z,30.82
2023-07-15T07:10:15.744Z,30.79
2023-07-15T07:12:42.425Z,30.76
2023-07-15T07:15:09.427Z,30.76
2023-07-15T07:17:36.202Z,30.78
2023-07-15T07:20:05.063Z,30.43
2023-07-15T07:22:32.116Z,30.75
2023-07-15T07:24:58.796Z,30.72
2023-07-15T07:27:25.460Z,30.72
2023-07-15T07:29:52.162Z,30.79
2023-07-15T07:32:18.825Z,30.85
2023-07-15T07:34:45.493Z,31.17
2023-07-15T07:37:12.152Z,31.18
2023-07-15T07:39:38.847Z,31.50
2023-07-15T07:42:05.499Z,31.67
2023-07-15T07:44:32.170Z,31.79
2023-07-15T07:46:58.903Z,31.97
2023-07-15T07:49:25.626Z,31.41
2023-07-15T07:51:52.304Z,31.77
2023-07-15T07:54:18.991Z,31.94
2023-07-15T07:56:45.702Z,31.63
2023-07-15T07:59:12.370Z,32.07
2023-07-15T08:01:39.057Z,32.29
2023-07-15T08:04:05.795Z,32.46
2023-07-15T08:06:32.565Z,32.79
2023-07-15T08:08:59.234Z,32.95
2023-07-15T08:11:25.920Z,32.98
2023-07-15T08:13:52.613Z,33.07
2023-07-15T08:16:19.259Z,32.32
2023-07-15T08:18:45.973Z,32.28
2023-07-15T08:21:12.837Z,32.11
2023-07-15T08:23:39.778Z,32.58
2023-07-15T08:26:06.476Z,32.89
2023-07-15T08:28:33.126Z,33.33
2023-07-15T08:30:59.793Z,32.49
2023-07-15T08:33:27.866Z,32.64
2023-07-15T08:35:54.532Z,33.14
2023-07-15T08:38:21.188Z,33.56
2023-07-15T08:40:47.837Z,33.59
2023-07-15T08:43:14.522Z,33.26
2023-07-15T08:45:41.204Z,33.27
2023-07-15T08:48:07.927Z,33.68
2023-07-15T08:50:34.626Z,33.53
2023-07-15T08:53:01.337Z,33.12
2023-07-15T08:55:27.996Z,32.98
2023-07-15T08:57:54.671Z,33.16
2023-07-15T09:00:21.328Z,32.46
2023-07-15T09:02:48.057Z,33.00
2023-07-15T09:05:14.746Z,33.29
2023-07-15T09:07:44.703Z,33.21
2023-07-15T09:10:11.544Z,32.69
2023-07-15T09:12:38.253Z,33.30
2023-07-15T09:15:04.908Z,33.59
2023-07-15T09:17:31.618Z,33.63
2023-07-15T09:19:58.324Z,33.32
2023-07-15T09:22:25.049Z,34.08
2023-07-15T09:24:51.773Z,34.39
2023-07-15T09:27:18.460Z,34.31
2023-07-15T09:29:45.161Z,34.01
2023-07-15T09:32:12.003Z,34.38
2023-07-15T09:34:38.745Z,34.06
2023-07-15T09:37:05.420Z,34.03
2023-07-15T09:39:32.099Z,34.57
2023-07-15T09:41:58.785Z,34.90
2023-07-15T09:44:25.486Z,34.81
2023-07-15T09:46:52.127Z,34.91
2023-07-15T09:49:18.786Z,34.89
2023-07-15T09:51:45.483Z,34.80
2023-07-15T09:54:12.169Z,34.73
2023-07-15T09:56:38.813Z,34.26
2023-07-15T09:59:05.503Z,34.05
2023-07-15T10:01:32.157Z,35.00
2023-07-15T10:03:59.073Z,34.95
2023-07-15T10:06:25.750Z,34.48
2023-07-15T10:08:52.411Z,34.73
2023-07-15T10:11:19.071Z,35.43
2023-07-15T10:13:45.702Z,35.97
2023-07-15T10:16:12.468Z,36.14
2023-07-15T10:18:39.180Z,35.56
2023-07-15T10:21:05.917Z,35.00
2023-07-15T10:23:32.609Z,34.36
2023-07-15T10:25:59.275Z,34.54
2023-07-15T10:28:25.913Z,34.29
2023-07-15T10:31:05.067Z,34.22
2023-07-15T10:33:32.943Z,33.65
2023-07-15T10:35:59.653Z,34.44
2023-07-15T10:38:26.313Z,34.24
2023-07-15T10:40:53.006Z,35.17
2023-07-15T10:43:19.946Z,35.18
2023-07-15T10:45:46.600Z,35.28
2023-07-15T10:48:13.312Z,36.06
2023-07-15T10:50:40.009Z,36.07
2023-07-15T10:53:06.710Z,35.99
2023-07-15T10:55:33.362Z,36.16
2023-07-15T10:58:00.012Z,35.99
2023-07-15T11:00:26.714Z,36.14
2023-07-15T11:02:53.378Z,35.63
2023-07-15T11:05:20.148Z,35.66
2023-07-15T11:07:46.844Z,34.80
2023-07-15T11:10:13.528Z,35.37
2023-07-15T11:12:40.219Z,36.26
2023-07-15T11:15:06.877Z,36.66
2023-07-15T11:17:33.800Z,36.90
2023-07-15T11:20:00.551Z,36.66
2023-07-15T11:22:27.271Z,35.85
2023-07-15T11:24:54.002Z,36.58
2023-07-15T11:27:20.655Z,36.75
2023-07-15T11:29:47.347Z,35.81
2023-07-15T11:32:14.038Z,36.21
2023-07-15T11:34:40.682Z,36.55
2023-07-15T11:37:07.381Z,37.32
2023-07-15T11:39:34.022Z,36.48
2023-07-15T11:42:00.702Z,35.87
2023-07-15T11:44:27.405Z,35.10
2023-07-15T11:46:54.112Z,34.92
2023-07-15T11:49:20.814Z,34.79
2023-07-15T11:51:47.463Z,35.56
2023-07-15T11:54:14.125Z,35.62
2023-07-15T11:56:40.855Z,35.44
2023-07-15T11:59:07.654Z,35.56
2023-07-15T12:01:34.416Z,35.93
2023-07-15T12:04:01.177Z,35.50
2023-07-15T12:06:27.910Z,35.30
2023-07-15T12:08:54.581Z,35.65
2023-07-15T12:11:21.246Z,35.60
2023-07-15T12:13:47.914Z,35.60
2023-07-15T12:16:15.020Z,35.47
2023-07-15T12:18:41.893Z,35.82
2023-07-15T12:21:08.587Z,37.02
2023-07-15T12:23:35.244Z,37.64
2023-07-15T12:26:01.928Z,37.09
2023-07-15T12:28:28.599Z,37.27
2023-07-15T12:30:55.378Z,36.55
2023-07-15T12:33:22.078Z,36.05
2023-07-15T12:35:48.742Z,35.87
2023-07-15T12:38:15.405Z,35.94
2023-07-15T12:40:42.075Z,36.44
2023-07-15T12:43:08.727Z,36.07
2023-07-15T12:45:35.382Z,36.31
2023-07-15T12:48:02.041Z,36.28
2023-07-15T12:50:28.752Z,36.66
2023-07-15T12:52:55.416Z,35.98
2023-07-15T12:55:22.129Z,35.77
2023-07-15T12:57:48.813Z,36.82
2023-07-15T13:00:15.492Z,37.57
2023-07-15T13:02:42.230Z,37.66
2023-07-15T13:05:09.048Z,37.20
2023-07-15T13:07:35.704Z,36.86
2023-07-15T13:10:02.420Z,37.55
2023-07-15T13:12:29.093Z,38.27
2023-07-15T13:14:55.756Z,37.94
2023-07-15T13:17:22.453Z,37.16
2023-07-15T13:19:49.114Z,37.33
2023-07-15T13:22:17.117Z,37.65
2023-07-15T13:24:45.665Z,37.32
2023-07-15T13:27:12.339Z,37.35
2023-07-15T13:29:39.056Z,37.81
2023-07-15T13:32:05.783Z,37.30
2023-07-15T13:34:32.518Z,37.63
2023-07-15T13:36:59.208Z,37.57
2023-07-15T13:39:25.886Z,37.85
2023-07-15T13:41:52.560Z,37.25
2023-07-15T13:44:19.314Z,36.70
2023-07-15T13:46:45.990Z,36.34
2023-07-15T13:49:12.636Z,36.18
2023-07-15T13:51:39.324Z,36.68
2023-07-15T13:54:06.008Z,36.61
2023-07-15T13:56:32.669Z,37.33
2023-07-15T13:58:59.359Z,36.88
2023-07-15T14:01:26.071Z,36.76
2023-07-15T14:03:52.833Z,36.83
2023-07-15T14:06:19.521Z,37.81
2023-07-15T14:08:46.213Z,37.57
2023-07-15T14:11:13.104Z,37.38
2023-07-15T14:13:40.058Z,37.71
2023-07-15T14:16:06.758Z,38.28
2023-07-15T14:18:33.422Z,38.03
2023-07-15T14:21:00.070Z,38.33
2023-07-15T14:23:26.777Z,38.00
2023-07-15T14:25:55.974Z,37.09
2023-07-15T14:28:22.924Z,36.43
2023-07-15T14:30:49.619Z,36.15
2023-07-15T14:33:16.312Z,36.40
2023-07-15T14:35:42.988Z,36.54
2023-07-15T14:38:09.662Z,36.39
2023-07-15T14:40:36.347Z,36.06
2023-07-15T14:43:03.018Z,35.99
2023-07-15T14:45:29.679Z,36.15
2023-07-15T14:47:56.384Z,36.32
2023-07-15T14:50:23.068Z,36.31
2023-07-15T14:52:49.754Z,36.25
2023-07-15T14:55:16.396Z,37.05
2023-07-15T14:57:43.099Z,37.17
2023-07-15T15:00:09.831Z,36.17
2023-07-15T15:02:36.521Z,35.81
2023-07-15T15:05:03.198Z,36.15
2023-07-15T15:07:29.886Z,36.26
2023-07-15T15:09:56.560Z,35.83
2023-07-15T15:12:23.258Z,36.51
2023-07-15T15:14:49.974Z,36.54
2023-07-15T15:17:16.854Z,36.50
2023-07-15T15:19:43.645Z,36.15
2023-07-15T15:22:10.335Z,35.99
2023-07-15T15:24:36.988Z,35.93
2023-07-15T15:27:03.686Z,36.35
2023-07-15T15:29:30.374Z,36.74
2023-07-15T15:31:57.237Z,36.56
2023-07-15T15:34:23.919Z,36.09
2023-07-15T15:36:50.608Z,35.71
2023-07-15T15:39:17.282Z,35.99
2023-07-15T15:41:43.954Z,36.04
2023-07-15T15:44:10.665Z,35.95
2023-07-15T15:46:37.451Z,36.23
2023-07-15T15:49:04.184Z,36.07
2023-07-15T15:51:30.854Z,35.91
2023-07-15T15:53:57.556Z,35.88
2023-07-15T15:56:24.268Z,35.74
2023-07-15T15:58:50.941Z,36.01
2023-07-15T16:01:17.652Z,36.43
2023-07-15T16:03:44.442Z,36.47
2023-07-15T16:06:11.245Z,35.62
2023-07-15T16:08:37.974Z,35.43
2023-07-15T16:11:04.660Z,35.10
2023-07-15T16:13:31.319Z,35.31
2023-07-15T16:15:58.005Z,35.36
2023-07-15T16:18:24.687Z,35.67
2023-07-15T16:20:51.404Z,35.47
2023-07-15T16:23:18.083Z,35.51
2023-07-15T16:25:44.746Z,35.65
2023-07-15T16:28:11.381Z,35.71
2023-07-15T16:30:38.042Z,36.10
2023-07-15T16:33:04.711Z,36.26
2023-07-15T16:35:31.440Z,36.98
2023-07-15T16:37:58.101Z,36.43
2023-07-15T16:40:24.786Z,36.40
2023-07-15T16:42:51.479Z,36.39
2023-07-15T16:45:18.166Z,36.03
2023-07-15T16:47:44.868Z,36.46
2023-07-15T16:50:11.586Z,36.17
2023-07-15T16:52:38.229Z,35.21
2023-07-15T16:55:04.896Z,35.16
2023-07-15T16:57:31.539Z,35.46
2023-07-15T16:59:58.204Z,35.69
2023-07-15T17:02:24.917Z,36.02
2023-07-15T17:04:51.676Z,35.94
2023-07-15T17:07:18.332Z,36.16
2023-07-15T17:09:45.018Z,35.45
2023-07-15T17:12:11.706Z,35.41
2023-07-15T17:14:38.389Z,35.27
2023-07-15T17:17:05.065Z,35.31
2023-07-15T17:19:31.863Z,35.66
2023-07-15T17:21:58.540Z,35.77
2023-07-15T17:24:25.225Z,35.44
2023-07-15T17:26:51.917Z,35.47
2023-07-15T17:29:18.608Z,35.28
2023-07-15T17:31:45.384Z,34.96
2023-07-15T17:34:12.127Z,34.57
2023-07-15T17:36:38.786Z,34.60
2023-07-15T17:39:05.463Z,34.83
2023-07-15T17:41:32.132Z,34.62
2023-07-15T17:43:58.808Z,34.61
2023-07-15T17:46:25.563Z,34.96
2023-07-15T17:48:52.301Z,34.93
2023-07-15T17:51:19.383Z,35.08
2023-07-15T17:53:46.344Z,35.10
2023-07-15T17:56:13.036Z,35.24
2023-07-15T17:58:39.710Z,35.23
2023-07-15T18:01:06.420Z,34.99
2023-07-15T18:03:33.114Z,35.00
2023-07-15T18:05:59.751Z,34.97
2023-07-15T18:08:26.451Z,34.89
2023-07-15T18:10:53.136Z,34.82
2023-07-15T18:13:19.802Z,34.86
2023-07-15T18:15:46.548Z,34.76
2023-07-15T18:18:13.420Z,34.64
2023-07-15T18:20:40.134Z,34.62
2023-07-15T18:23:06.847Z,34.54
2023-07-15T18:25:33.550Z,34.43
2023-07-15T18:28:00.338Z,34.41
2023-07-15T18:30:27.052Z,34.34
2023-07-15T18:32:53.773Z,34.19
2023-07-15T18:35:20.503Z,34.08
2023-07-15T18:37:47.164Z,33.98
2023-07-15T18:40:13.823Z,33.83
2023-07-15T18:42:40.545Z,33.76
2023-07-15T18:45:07.240Z,33.81
2023-07-15T18:47:33.967Z,33.72
2023-07-15T18:50:00.654Z,33.67
2023-07-15T18:52:27.318Z,33.41
2023-07-15T18:54:54.001Z,33.39
2023-07-15T18:57:22.951Z,33.37
2023-07-15T18:59:50.266Z,33.32
2023-07-15T19:02:17.078Z,33.26
2023-07-15T19:04:43.849Z,33.29
2023-07-15T19:07:10.522Z,33.22
2023-07-15T19:09:37.193Z,33.11
2023-07-15T19:12:03.910Z,33.01
2023-07-15T19:14:30.626Z,32.96
2023-07-15T19:16:57.341Z,33.02
2023-07-15T19:19:24.038Z,32.92
2023-07-15T19:21:50.702Z,32.84
2023-07-15T19:24:17.381Z,32.79
2023-07-15T19:26:44.091Z,32.66
2023-07-15T19:29:10.801Z,32.51
2023-07-15T19:31:37.564Z,32.51
2023-07-15T19:34:04.269Z,32.35
2023-07-15T19:36:30.906Z,32.23
2023-07-15T19:38:57.569Z,32.32
2023-07-15T19:41:24.257Z,32.18
2023-07-15T19:43:50.936Z,32.07
2023-07-15T19:46:17.842Z,31.99
2023-07-15T19:48:44.838Z,32.00
2023-07-15T19:51:11.550Z,31.95
2023-07-15T19:53:38.242Z,31.91
2023-07-15T19:56:04.955Z,31.83
2023-07-15T19:58:31.658Z,31.70
2023-07-15T20:00:58.305Z,31.68
2023-07-15T20:03:25.015Z,31.60
2023-07-15T20:05:51.812Z,31.52
2023-07-15T20:08:18.657Z,31.48
2023-07-15T20:10:45.385Z,31.44
2023-07-15T20:13:12.071Z,31.27
2023-07-15T20:15:38.777Z,31.25
2023-07-15T20:18:05.495Z,31.19
2023-07-15T20:20:32.272Z,30.93
2023-07-15T20:22:58.966Z,31.04
2023-07-15T20:25:25.669Z,31.07
2023-07-15T20:27:52.337Z,31.15
2023-07-15T20:30:18.996Z,31.21
2023-07-15T20:32:45.835Z,31.04
2023-07-15T20:35:12.549Z,30.83
2023-07-15T20:37:39.198Z,30.79
2023-07-15T20:40:05.953Z,30.81
2023-07-15T20:42:32.633Z,30.78
2023-07-15T20:44:59.333Z,30.75
2023-07-15T20:47:26.043Z,30.60
2023-07-15T20:49:52.752Z,30.55
2023-07-15T20:52:19.464Z,30.45
2023-07-15T20:54:46.147Z,30.41
2023-07-15T20:57:12.857Z,30.48
2023-07-15T20:59:39.500Z,30.36
2023-07-15T21:02:06.274Z,30.35
2023-07-15T21:04:33.132Z,30.35
2023-07-15T21:06:59.956Z,30.34
2023-07-15T21:09:26.667Z,30.28
2023-07-15T21:11:53.372Z,30.16
2023-07-15T21:14:20.032Z,29.98
2023-07-15T21:16:46.975Z,29.99
2023-07-15T21:19:13.682Z,30.10
2023-07-15T21:21:40.341Z,29.97
2023-07-15T21:24:07.151Z,29.94
2023-07-15T21:26:33.830Z,29.91
2023-07-15T21:29:00.511Z,29.79
2023-07-15T21:31:27.221Z,29.68
2023-07-15T21:33:53.946Z,29.56
2023-07-15T21:36:20.617Z,29.72
2023-07-15T21:38:47.491Z,29.69
2023-07-15T21:41:14.149Z,29.60
2023-07-15T21:43:40.824Z,29.60
2023-07-15T21:46:07.600Z,29.60
2023-07-15T21:48:34.331Z,29.56
2023-07-15T21:51:01.028Z,29.57
2023-07-15T21:53:27.715Z,29.54
2023-07-15T21:55:54.378Z,29.49
2023-07-15T21:58:21.294Z,29.51
2023-07-15T22:00:48.147Z,29.39
2023-07-15T22:03:15.054Z,29.31
2023-07-15T22:05:41.869Z,29.38
2023-07-15T22:08:08.638Z,29.16
2023-07-15T22:10:35.537Z,28.97
2023-07-15T22:13:02.293Z,29.06
2023-07-15T22:15:29.020Z,29.01
2023-07-15T22:17:55.802Z,28.94
2023-07-15T22:20:24.896Z,29.04
2023-07-15T22:22:51.909Z,29.02
2023-07-15T22:25:18.638Z,28.92
2023-07-15T22:27:45.441Z,28.83
2023-07-15T22:30:12.153Z,28.91
2023-07-15T22:32:38.891Z,28.68
2023-07-15T22:35:05.571Z,28.63
2023-07-15T22:37:32.249Z,28.76
2023-07-15T22:39:58.931Z,28.88
2023-07-15T22:42:25.622Z,28.87
2023-07-15T22:44:52.296Z,28.64
2023-07-15T22:47:19.044Z,28.63
2023-07-15T22:49:45.819Z,28.71
2023-07-15T22:52:12.520Z,28.65
2023-07-15T22:54:39.261Z,28.58
2023-07-15T22:57:05.917Z,28.47
2023-07-15T22:59:32.591Z,28.49
2023-07-15T23:01:59.293Z,28.41
2023-07-15T23:04:26.067Z,28.33
2023-07-15T23:06:52.752Z,28.38
2023-07-15T23:09:19.415Z,28.19
2023-07-15T23:11:46.069Z,28.12
2023-07-15T23:14:12.737Z,28.15
2023-07-15T23:16:39.402Z,28.33
2023-07-15T23:19:06.107Z,28.14
2023-07-15T23:21:32.886Z,28.09
2023-07-15T23:23:59.628Z,28.13
2023-07-15T23:26:26.293Z,27.91
2023-07-15T23:28:52.952Z,27.93
2023-07-15T23:31:19.732Z,28.13
2023-07-15T23:33:46.483Z,27.98
2023-07-15T23:36:13.568Z,28.10
2023-07-15T23:38:40.583Z,27.98
2023-07-15T23:41:08.932Z,27.85
2023-07-15T23:43:37.193Z,27.71
2023-07-15T23:46:03.846Z,27.91
2023-07-15T23:48:30.513Z,27.84
2023-07-15T23:50:57.208Z,27.68
2023-07-15T23:53:23.858Z,27.48
2023-07-15T23:55:50.522Z,27.48
2023-07-15T23:58:17.173Z,27.57
